Hlavní strana
METAR-TAF:

METAR-TAF

Letiště :

Mendoza, Argentina

zeměpisná šířka: 32-50S, zeměpisná délka: 068-47W, výška: 705 m

Aktuální stav počasí

Zpráva byla vytvořena před 44 minutami, v 23:00 UTC
Východoseverovýchodní vítr 5 kt
Teplota 28°C
Vlhkost vzduchu 28%
Tlak 1011 hPa
Viditelnost 10 km a více
Žádná oblačnost pod 1500 m, nevyskytují se cumulonimby.

METAR: SAME 092300Z 07005KT CAVOK 28/08 Q1011

Čas: 20:44 (23:44 UTC)

Předpověď počasí

Zpráva byla vytvořena před 44 minutami, v 23:00 UTC
Předpověď platná od 10 v 00 UTC do 10 v 24 UTC
Severovýchodní vítr 5 kt
Viditelnost 10 km a více
Skoro jasno ve výšce 4000 ft

TAF: SAME 092300Z 1000/1024 05005KT 9999 FEW040 TX32/1020Z TN17/1010Z

Stav a předpovědi počasí z více než 4 000 letišť (zprávy METAR a TAF).

Červené a žluté tečky na mapě představují dostupné meteorologické stanice.

Když kurzor umístíte na tečku, zobrazí se název stanice.

Pak kliknutím zobrazíte stav a předpověď počasí.

Chcete-li změnit mapu, kliknutím na zelené tlačítko se znaménkem +mapu přiblížíte, kliknutím na zelené tlačítko se znaménkem – mapu oddálíte a kliknutím na zelené šipky přejdete na sousední mapy.


METAR-TAF: